Time;durP1;ratioP1;P1;durP2;ratioP2;P2;SDS_P1;SDS_P2;PMS_P1;PMS_P2;Temp;Humidity;BMP_temperature;BMP_pressure;BME280_temperature;BME280_humidity;BME280_pressure;Samples;Min_cycle;Max_cycle;Signal;HPM_P1;HPM_P2
2023/11/04 00:00:11;;;;;;;0.70;0.70;;;6.50;99.90;;;;;;5018302;28;20043;-83
2023/11/04 00:02:38;;;;;;;0.60;0.60;;;6.50;99.90;;;;;;4997902;28;20055;-80
2023/11/04 00:05:05;;;;;;;0.70;0.70;;;6.50;99.90;;;;;;5002183;28;20097;-80
2023/11/04 00:07:31;;;;;;;0.60;0.60;;;6.50;99.90;;;;;;5013075;28;20038;-79
2023/11/04 00:09:57;;;;;;;;;;;6.40;99.90;;;;;;5026426;28;20052;-80
2023/11/04 00:12:22;;;;;;;0.82;0.82;;;6.40;99.90;;;;;;5037947;28;19926;-82
2023/11/04 00:14:48;;;;;;;0.75;0.75;;;6.40;99.90;;;;;;5021027;28;20082;-83
2023/11/04 00:17:14;;;;;;;0.50;0.50;;;6.40;99.90;;;;;;5021629;28;20121;-80
2023/11/04 00:19:39;;;;;;;0.60;0.60;;;6.40;99.90;;;;;;5020702;28;20036;-79
2023/11/04 00:22:06;;;;;;;0.70;0.70;;;6.40;99.90;;;;;;5014891;28;20055;-81
2023/11/04 00:24:32;;;;;;;0.50;0.50;;;6.40;99.90;;;;;;4989138;28;20046;-81
2023/11/04 00:26:59;;;;;;;0.70;0.70;;;6.60;99.90;;;;;;5005072;28;20045;-83
2023/11/04 00:29:25;;;;;;;;;;;6.60;99.90;;;;;;4991400;28;20390;-82
2023/11/04 00:31:50;;;;;;;0.43;0.43;;;6.70;99.90;;;;;;5000390;28;19922;-81
2023/11/04 00:34:16;;;;;;;0.60;0.60;;;6.80;99.90;;;;;;5055366;28;20046;-81
2023/11/04 00:36:42;;;;;;;0.50;0.50;;;6.90;99.90;;;;;;5005776;28;20125;-80
2023/11/04 00:39:09;;;;;;;3.30;1.08;;;6.90;99.90;;;;;;5049397;28;20082;-79
2023/11/04 00:41:35;;;;;;;0.60;0.60;;;7.00;99.90;;;;;;4990566;28;20063;-79
2023/11/04 00:44:01;;;;;;;0.50;0.50;;;7.00;99.90;;;;;;4967818;28;20513;-83
2023/11/04 00:46:27;;;;;;;0.50;0.50;;;7.10;99.90;;;;;;5040736;28;20035;-81
2023/11/04 00:48:52;;;;;;;0.50;0.50;;;7.10;99.90;;;;;;5023864;28;20095;-81
2023/11/04 00:51:18;;;;;;;0.50;0.50;;;7.20;99.90;;;;;;4993949;28;20043;-83
2023/11/04 00:53:44;;;;;;;0.50;0.50;;;7.10;99.90;;;;;;5000214;28;20048;-78
2023/11/04 00:56:10;;;;;;;0.98;0.98;;;7.10;99.90;;;;;;4996303;28;20042;-81
2023/11/04 00:58:35;;;;;;;0.50;0.50;;;7.20;99.90;;;;;;5017590;28;20106;-83
2023/11/04 01:01:01;;;;;;;0.50;0.50;;;7.20;99.90;;;;;;4984193;28;20415;-80
2023/11/04 01:03:26;;;;;;;0.60;0.60;;;7.10;99.90;;;;;;4968710;28;20046;-81
2023/11/04 01:05:52;;;;;;;0.40;0.40;;;7.20;99.90;;;;;;4970293;28;20061;-83
2023/11/04 01:08:21;;;;;;;0.40;0.40;;;7.20;99.90;;;;;;4980060;28;20046;-79
2023/11/04 01:10:53;;;;;;;0.40;0.40;;;7.40;99.90;;;;;;5034851;28;20504;-80
2023/11/04 01:13:19;;;;;;;0.60;0.60;;;7.20;99.90;;;;;;5006064;28;20040;-81
2023/11/04 01:15:45;;;;;;;0.75;0.75;;;7.20;99.90;;;;;;5010445;28;20048;-79
2023/11/04 01:18:11;;;;;;;0.32;0.32;;;7.20;99.90;;;;;;4977415;28;20043;-80
2023/11/04 01:20:37;;;;;;;0.50;0.50;;;7.30;99.90;;;;;;5030190;28;20039;-80
2023/11/04 01:23:03;;;;;;;0.63;0.63;;;7.20;99.90;;;;;;5045653;28;20036;-78
2023/11/04 01:25:29;;;;;;;0.40;0.40;;;7.20;99.90;;;;;;5012015;28;20070;-82
2023/11/04 01:27:55;;;;;;;0.40;0.40;;;7.20;99.90;;;;;;4995008;28;20042;-79
2023/11/04 01:30:22;;;;;;;0.50;0.50;;;7.20;99.90;;;;;;5035445;28;20035;-84
2023/11/04 01:32:47;;;;;;;0.50;0.50;;;7.30;99.90;;;;;;5001761;28;20048;-80
2023/11/04 01:35:13;;;;;;;1.10;1.10;;;7.30;99.90;;;;;;4984075;28;20041;-79
2023/11/04 01:37:39;;;;;;;0.40;0.40;;;7.30;99.90;;;;;;4978548;28;20145;-82
2023/11/04 01:40:10;;;;;;;0.70;0.70;;;7.30;99.90;;;;;;5054746;28;20125;-83
2023/11/04 01:42:35;;;;;;;0.43;0.43;;;7.30;99.90;;;;;;5015866;28;20038;-83
2023/11/04 01:45:02;;;;;;;0.60;0.60;;;7.30;99.90;;;;;;5028481;28;20523;-79
2023/11/04 01:47:28;;;;;;;0.57;0.57;;;7.30;99.90;;;;;;4970513;28;20522;-81
2023/11/04 01:49:53;;;;;;;0.60;0.60;;;7.30;99.90;;;;;;5003785;28;20048;-80
2023/11/04 01:52:19;;;;;;;0.50;0.50;;;7.30;99.90;;;;;;5025421;28;20039;-80
2023/11/04 01:54:45;;;;;;;0.57;0.57;;;7.30;99.90;;;;;;5056063;28;20039;-80
2023/11/04 01:57:11;;;;;;;0.93;0.93;;;7.40;99.90;;;;;;5010427;28;20468;-80
2023/11/04 01:59:37;;;;;;;0.50;0.50;;;7.30;99.90;;;;;;4988145;28;20048;-82
2023/11/04 02:02:08;;;;;;;0.32;0.32;;;7.30;99.90;;;;;;5004482;28;20040;-81
2023/11/04 02:04:33;;;;;;;0.43;0.43;;;7.40;99.90;;;;;;4990972;28;20431;-80
2023/11/04 02:06:59;;;;;;;0.60;0.60;;;7.40;99.90;;;;;;5000475;28;20043;-80
2023/11/04 02:09:25;;;;;;;0.50;0.50;;;7.40;99.90;;;;;;5013401;28;20049;-80
2023/11/04 02:11:53;;;;;;;0.55;0.55;;;7.40;99.90;;;;;;5039427;28;20400;-78
2023/11/04 02:14:20;;;;;;;0.95;0.95;;;7.40;99.90;;;;;;4991985;28;20500;-82
2023/11/04 02:16:48;;;;;;;0.50;0.50;;;7.40;99.90;;;;;;5050334;28;20080;-80
2023/11/04 02:19:13;;;;;;;0.63;0.63;;;7.50;99.90;;;;;;5003819;28;20040;-82
2023/11/04 02:21:40;;;;;;;0.40;0.40;;;7.40;99.90;;;;;;5009676;28;20059;-85
2023/11/04 02:24:06;;;;;;;0.50;0.50;;;7.50;99.90;;;;;;5054155;28;20115;-83
2023/11/04 02:26:33;;;;;;;0.60;0.60;;;7.50;99.90;;;;;;4980728;28;20099;-79
2023/11/04 02:29:00;;;;;;;0.43;0.43;;;7.50;99.90;;;;;;4964022;28;20041;-85
2023/11/04 02:31:26;;;;;;;0.82;0.82;;;7.50;99.90;;;;;;4964006;28;20062;-81
2023/11/04 02:33:52;;;;;;;0.47;0.47;;;7.50;99.90;;;;;;5021675;28;20119;-81
2023/11/04 02:36:18;;;;;;;0.50;0.50;;;7.60;99.90;;;;;;4981468;28;20192;-85
2023/11/04 02:38:44;;;;;;;0.32;0.32;;;7.60;99.90;;;;;;4976663;28;20058;-85
2023/11/04 02:41:10;;;;;;;0.60;0.60;;;7.60;99.90;;;;;;4991352;28;20054;-78
2023/11/04 02:43:36;;;;;;;0.50;0.50;;;7.60;99.90;;;;;;5004630;28;20110;-80
2023/11/04 02:46:02;;;;;;;0.52;0.52;;;7.60;99.90;;;;;;4964361;28;20031;-76
2023/11/04 02:48:27;;;;;;;0.63;0.63;;;7.60;99.90;;;;;;4992084;28;20429;-79
2023/11/04 02:50:53;;;;;;;0.63;0.63;;;7.70;99.90;;;;;;5018778;28;20038;-80
2023/11/04 02:53:19;;;;;;;0.60;0.60;;;7.70;99.90;;;;;;5006636;28;20056;-79
2023/11/04 02:55:45;;;;;;;0.60;0.60;;;7.70;99.90;;;;;;4999131;28;20054;-79
2023/11/04 02:58:10;;;;;;;0.80;0.80;;;7.80;99.90;;;;;;4998719;28;20063;-80
2023/11/04 03:00:36;;;;;;;0.40;0.40;;;7.80;99.90;;;;;;4994448;28;20490;-78
2023/11/04 03:03:02;;;;;;;0.50;0.50;;;7.70;99.90;;;;;;5007044;28;20041;-77
2023/11/04 03:05:28;;;;;;;0.52;0.52;;;7.80;99.90;;;;;;5014928;28;20142;-76
2023/11/04 03:07:55;;;;;;;0.80;0.80;;;7.80;99.90;;;;;;4972992;28;20050;-78
2023/11/04 03:10:20;;;;;;;0.40;0.40;;;7.90;99.90;;;;;;4994077;28;20449;-78
2023/11/04 03:12:46;;;;;;;0.50;0.50;;;7.80;99.90;;;;;;5019796;28;20096;-79
2023/11/04 03:15:12;;;;;;;0.45;0.45;;;7.80;99.90;;;;;;4980388;28;20119;-75
2023/11/04 03:17:38;;;;;;;0.50;0.50;;;7.90;99.90;;;;;;4988542;28;20035;-77
2023/11/04 03:20:05;;;;;;;0.50;0.50;;;7.90;99.90;;;;;;4985661;28;20082;-76
2023/11/04 03:22:31;;;;;;;0.57;0.57;;;7.90;99.90;;;;;;4975401;28;20047;-80
2023/11/04 03:24:57;;;;;;;0.70;0.70;;;7.90;99.90;;;;;;4998950;28;20089;-78
2023/11/04 03:27:23;;;;;;;0.60;0.60;;;8.00;99.90;;;;;;5019102;28;20032;-79
2023/11/04 03:29:49;;;;;;;0.50;0.50;;;8.00;99.90;;;;;;5017573;28;20043;-77
2023/11/04 03:32:15;;;;;;;0.85;0.85;;;8.00;99.90;;;;;;5049959;28;20112;-79
2023/11/04 03:34:41;;;;;;;0.50;0.50;;;8.00;99.90;;;;;;4955015;28;20051;-78
2023/11/04 03:37:07;;;;;;;0.55;0.55;;;8.00;99.90;;;;;;4974402;28;20462;-81
2023/11/04 03:39:33;;;;;;;0.40;0.40;;;8.00;99.90;;;;;;5040802;28;20119;-79
2023/11/04 03:42:02;;;;;;;0.45;0.45;;;8.00;99.90;;;;;;4982645;28;20504;-78
2023/11/04 03:44:28;;;;;;;0.40;0.40;;;8.00;99.90;;;;;;5039359;28;20421;-79
2023/11/04 03:46:56;;;;;;;0.45;0.45;;;8.00;99.90;;;;;;4993868;28;20045;-77
2023/11/04 03:49:22;;;;;;;0.50;0.50;;;8.00;99.90;;;;;;4985593;28;20082;-79
2023/11/04 03:51:48;;;;;;;0.40;0.40;;;8.00;99.90;;;;;;5048315;28;20052;-77
2023/11/04 03:54:14;;;;;;;0.60;0.60;;;8.00;99.90;;;;;;5011857;28;20524;-80
2023/11/04 03:56:39;;;;;;;1.35;0.65;;;7.90;99.90;;;;;;5037262;28;20066;-77
2023/11/04 03:59:05;;;;;;;0.90;0.85;;;8.00;99.90;;;;;;5002065;28;20088;-79
2023/11/04 04:01:39;;;;;;;0.50;0.50;;;7.90;99.90;;;;;;5023720;28;20184;-78
2023/11/04 04:04:05;;;;;;;0.30;0.30;;;7.90;99.90;;;;;;5007649;28;20047;-80
2023/11/04 04:06:31;;;;;;;0.50;0.50;;;7.90;99.90;;;;;;5028875;28;20542;-81
2023/11/04 04:08:57;;;;;;;0.52;0.52;;;7.80;99.90;;;;;;4978685;28;20047;-79
2023/11/04 04:11:22;;;;;;;1.80;0.68;;;7.90;99.90;;;;;;4993794;28;20053;-77
2023/11/04 04:13:48;;;;;;;0.52;0.52;;;7.90;99.90;;;;;;4968146;28;20455;-78
2023/11/04 04:16:14;;;;;;;0.73;0.73;;;7.80;99.90;;;;;;4984494;28;20400;-81
2023/11/04 04:18:40;;;;;;;2.13;2.03;;;7.90;99.90;;;;;;4997231;28;20041;-80
2023/11/04 04:21:06;;;;;;;0.60;0.60;;;7.90;99.90;;;;;;5010968;28;20104;-80
2023/11/04 04:23:32;;;;;;;0.30;0.30;;;7.90;99.90;;;;;;4996357;28;20502;-78
2023/11/04 04:25:58;;;;;;;0.43;0.43;;;7.90;99.90;;;;;;4960854;28;20051;-80
2023/11/04 04:28:23;;;;;;;0.75;0.75;;;7.90;99.90;;;;;;5021093;28;20355;-79
2023/11/04 04:30:49;;;;;;;0.57;0.57;;;7.90;99.90;;;;;;5033594;28;20475;-78
2023/11/04 04:33:15;;;;;;;0.60;0.60;;;8.00;99.90;;;;;;4935586;28;20467;-80
2023/11/04 04:35:41;;;;;;;;;;;8.00;99.90;;;;;;4964989;28;20035;-80
2023/11/04 04:38:07;;;;;;;14.57;2.05;;;8.00;99.90;;;;;;4992537;28;19921;-78
2023/11/04 04:40:33;;;;;;;0.60;0.60;;;8.00;99.90;;;;;;5005920;28;20046;-78
2023/11/04 04:42:58;;;;;;;0.45;0.45;;;8.00;99.90;;;;;;4981473;28;20057;-78
2023/11/04 04:45:25;;;;;;;0.50;0.50;;;8.00;99.90;;;;;;4979899;28;20039;-80
2023/11/04 04:47:51;;;;;;;0.50;0.50;;;8.10;99.90;;;;;;5015785;28;20047;-78
2023/11/04 04:50:16;;;;;;;0.38;0.38;;;8.00;99.90;;;;;;5051827;28;20033;-81
2023/11/04 04:52:42;;;;;;;0.70;0.70;;;8.10;99.90;;;;;;5050581;28;20083;-76
2023/11/04 04:55:08;;;;;;;0.50;0.50;;;8.10;99.90;;;;;;4998604;28;20155;-80
2023/11/04 04:57:35;;;;;;;1.98;0.88;;;8.10;99.90;;;;;;4999726;28;20036;-79
2023/11/04 05:00:04;;;;;;;0.52;0.52;;;8.10;99.90;;;;;;5020936;28;20093;-78
2023/11/04 05:02:30;;;;;;;0.80;0.80;;;8.20;99.90;;;;;;5043116;28;20052;-77
2023/11/04 05:04:56;;;;;;;0.57;0.57;;;8.20;99.90;;;;;;4981090;28;20033;-78
2023/11/04 05:07:21;;;;;;;0.95;0.95;;;8.20;99.90;;;;;;5054648;28;20513;-77
2023/11/04 05:09:47;;;;;;;0.50;0.50;;;8.20;99.90;;;;;;5042028;28;20048;-78
2023/11/04 05:12:14;;;;;;;0.40;0.40;;;8.20;99.90;;;;;;5053900;28;20049;-76
2023/11/04 05:14:39;;;;;;;0.38;0.38;;;8.20;99.90;;;;;;4982297;28;20043;-81
2023/11/04 05:17:05;;;;;;;0.60;0.60;;;8.30;99.90;;;;;;4977512;28;20046;-78
2023/11/04 05:19:31;;;;;;;0.73;0.73;;;8.30;99.90;;;;;;5017426;28;20088;-75
2023/11/04 05:21:56;;;;;;;0.45;0.45;;;8.30;99.90;;;;;;4996339;28;20360;-78
2023/11/04 05:24:22;;;;;;;0.40;0.40;;;8.30;99.90;;;;;;5047750;28;20131;-80
2023/11/04 05:26:48;;;;;;;0.75;0.75;;;8.30;99.90;;;;;;4999674;28;20070;-81
2023/11/04 05:29:13;;;;;;;0.75;0.60;;;8.30;99.90;;;;;;5038171;28;20030;-80
2023/11/04 05:31:39;;;;;;;0.43;0.43;;;7.90;99.90;;;;;;4990673;28;20046;-78
2023/11/04 05:34:05;;;;;;;3.15;1.38;;;8.30;99.90;;;;;;4980480;28;20070;-76
2023/11/04 05:36:30;;;;;;;0.40;0.40;;;8.30;99.90;;;;;;5011348;28;20100;-81
2023/11/04 05:38:56;;;;;;;0.40;0.40;;;8.30;99.90;;;;;;5001208;28;20043;-81
2023/11/04 05:41:25;;;;;;;0.85;0.85;;;8.40;99.90;;;;;;5011261;28;20040;-80
2023/11/04 05:43:50;;;;;;;0.47;0.47;;;8.30;99.90;;;;;;4990672;28;20045;-80
2023/11/04 05:46:16;;;;;;;0.60;0.60;;;8.40;99.90;;;;;;5038839;28;20535;-79
2023/11/04 05:48:41;;;;;;;0.45;0.45;;;8.30;99.90;;;;;;5001101;28;20518;-77
2023/11/04 05:51:07;;;;;;;0.93;0.70;;;8.30;99.90;;;;;;5009250;28;20498;-76
2023/11/04 05:53:33;;;;;;;0.50;0.50;;;8.20;99.90;;;;;;5019956;28;20042;-78
2023/11/04 05:55:59;;;;;;;0.40;0.40;;;8.20;99.90;;;;;;5057411;28;20474;-77
2023/11/04 05:58:24;;;;;;;0.50;0.50;;;8.20;99.90;;;;;;5022282;28;20572;-81
2023/11/04 06:00:50;;;;;;;0.65;0.65;;;8.30;99.90;;;;;;5017557;28;20050;-78
2023/11/04 06:03:16;;;;;;;0.50;0.50;;;8.30;99.90;;;;;;5035279;28;20478;-77
2023/11/04 06:05:43;;;;;;;0.70;0.70;;;8.30;99.90;;;;;;4967417;28;20392;-81
2023/11/04 06:08:10;;;;;;;0.47;0.47;;;8.30;99.90;;;;;;5001684;28;20039;-84
2023/11/04 06:10:39;;;;;;;0.43;0.43;;;8.30;99.90;;;;;;5003538;28;20504;-78
2023/11/04 06:13:06;;;;;;;0.50;0.50;;;8.30;99.90;;;;;;5013614;28;20037;-83
2023/11/04 06:15:31;;;;;;;0.50;0.50;;;8.40;99.90;;;;;;5019782;28;20039;-81
2023/11/04 06:17:57;;;;;;;0.90;0.90;;;8.40;99.90;;;;;;5019654;28;20039;-78
2023/11/04 06:20:23;;;;;;;0.40;0.40;;;8.40;99.90;;;;;;5022210;28;20034;-78
2023/11/04 06:22:48;;;;;;;0.30;0.30;;;8.40;99.90;;;;;;5020322;28;20104;-78
2023/11/04 06:25:14;;;;;;;0.52;0.52;;;8.40;99.90;;;;;;4999805;28;20112;-84
2023/11/04 06:27:40;;;;;;;0.70;0.70;;;8.40;99.90;;;;;;4992983;28;20552;-79
2023/11/04 06:30:10;;;;;;;0.60;0.60;;;8.40;99.90;;;;;;4980536;28;20039;-83
2023/11/04 06:32:36;;;;;;;1.05;0.60;;;8.50;99.90;;;;;;4995726;28;20047;-82
2023/11/04 06:35:02;;;;;;;5.78;0.90;;;8.50;99.90;;;;;;5033024;28;20090;-81
2023/11/04 06:37:28;;;;;;;1.40;1.40;;;8.50;99.90;;;;;;5036938;28;20042;-79
2023/11/04 06:39:54;;;;;;;0.50;0.50;;;8.50;99.90;;;;;;4997451;28;20038;-78
2023/11/04 06:42:26;;;;;;;0.75;0.75;;;8.50;99.90;;;;;;4968999;28;20093;-78
2023/11/04 06:44:54;;;;;;;0.50;0.50;;;8.50;99.90;;;;;;4998031;28;20062;-83
2023/11/04 06:47:22;;;;;;;1.52;1.42;;;8.50;99.90;;;;;;5031382;28;20043;-83
2023/11/04 06:49:48;;;;;;;0.40;0.40;;;8.50;99.90;;;;;;5046691;28;20045;-78
2023/11/04 06:52:14;;;;;;;0.60;0.60;;;8.50;99.90;;;;;;4983822;28;20046;-82
2023/11/04 06:54:46;;;;;;;0.55;0.55;;;8.50;99.90;;;;;;5008990;28;20047;-80
2023/11/04 06:57:11;;;;;;;0.45;0.45;;;8.50;99.90;;;;;;5039451;28;20120;-78
2023/11/04 06:59:43;;;;;;;1.50;0.80;;;8.50;99.90;;;;;;5036207;28;20062;-78
2023/11/04 07:02:09;;;;;;;0.45;0.45;;;8.50;99.90;;;;;;5044650;28;20489;-76
2023/11/04 07:04:37;;;;;;;0.50;0.50;;;8.60;99.90;;;;;;5019157;28;20046;-79
2023/11/04 07:07:02;;;;;;;0.50;0.50;;;8.60;99.90;;;;;;5019068;28;20149;-82
2023/11/04 07:09:28;;;;;;;0.40;0.40;;;8.60;99.90;;;;;;5056582;28;20038;-79
2023/11/04 07:11:54;;;;;;;0.50;0.50;;;8.60;99.90;;;;;;4986608;28;20439;-75
2023/11/04 07:14:21;;;;;;;0.40;0.40;;;8.50;99.90;;;;;;5048919;28;20046;-78
2023/11/04 07:16:47;;;;;;;0.40;0.40;;;8.60;99.90;;;;;;5038570;28;20213;-78
2023/11/04 07:19:14;;;;;;;1.33;0.73;;;8.60;99.90;;;;;;4998297;28;20134;-78
2023/11/04 07:21:41;;;;;;;0.50;0.50;;;8.60;99.90;;;;;;5007578;28;20052;-78
2023/11/04 07:24:07;;;;;;;0.40;0.40;;;8.60;99.90;;;;;;5018477;28;20418;-77
2023/11/04 07:26:33;;;;;;;0.73;0.73;;;8.60;99.90;;;;;;5030102;28;20085;-80
2023/11/04 07:28:58;;;;;;;0.45;0.45;;;8.60;99.90;;;;;;5003788;28;20089;-82
2023/11/04 07:31:25;;;;;;;0.25;0.25;;;8.60;99.90;;;;;;5000939;28;20396;-79
2023/11/04 07:33:52;;;;;;;0.30;0.30;;;8.60;99.90;;;;;;4999217;28;20373;-79
2023/11/04 07:36:25;;;;;;;0.50;0.50;;;8.60;99.90;;;;;;5017636;28;20040;-77
2023/11/04 07:38:54;;;;;;;0.50;0.50;;;8.60;99.90;;;;;;5069232;28;20111;-84
2023/11/04 07:41:19;;;;;;;0.60;0.60;;;8.60;99.90;;;;;;4988765;28;20035;-82
2023/11/04 07:43:48;;;;;;;1.02;1.02;;;8.60;99.90;;;;;;5004150;28;20042;-82
2023/11/04 07:46:13;;;;;;;0.52;0.52;;;8.60;99.90;;;;;;5042434;28;20030;-79
2023/11/04 07:48:39;;;;;;;1.02;1.02;;;8.70;99.90;;;;;;4989674;28;20040;-83
2023/11/04 07:51:05;;;;;;;0.70;0.70;;;8.70;99.90;;;;;;4980616;28;20112;-77
2023/11/04 07:53:31;;;;;;;0.50;0.50;;;8.70;99.90;;;;;;5052344;28;20179;-83
2023/11/04 07:55:57;;;;;;;0.73;0.73;;;8.80;99.90;;;;;;5057422;28;20043;-79
2023/11/04 07:58:24;;;;;;;0.57;0.57;;;8.80;99.90;;;;;;5040202;28;20056;-82
2023/11/04 08:00:49;;;;;;;0.47;0.47;;;8.80;99.90;;;;;;5034891;28;20075;-80
2023/11/04 08:03:15;;;;;;;0.90;0.85;;;8.80;99.90;;;;;;5026365;28;20090;-79
2023/11/04 08:05:44;;;;;;;0.50;0.50;;;8.90;99.90;;;;;;4970437;28;20507;-80
2023/11/04 08:08:13;;;;;;;0.40;0.40;;;8.90;99.90;;;;;;4975938;28;20042;-83
2023/11/04 08:10:39;;;;;;;0.60;0.60;;;8.90;99.90;;;;;;5018870;28;20047;-79
2023/11/04 08:13:05;;;;;;;0.50;0.50;;;9.00;99.90;;;;;;4959442;28;20039;-80
2023/11/04 08:15:30;;;;;;;0.40;0.40;;;9.10;99.90;;;;;;4970599;28;20039;-78
2023/11/04 08:17:59;;;;;;;0.40;0.40;;;9.10;99.90;;;;;;4986019;28;20078;-80
2023/11/04 08:20:24;;;;;;;0.47;0.47;;;9.10;99.90;;;;;;4987015;28;20061;-83
2023/11/04 08:22:51;;;;;;;1.08;1.08;;;9.10;99.90;;;;;;5001447;28;20052;-81
2023/11/04 08:25:17;;;;;;;0.70;0.70;;;9.10;99.90;;;;;;4989972;28;20394;-81
2023/11/04 08:27:43;;;;;;;0.52;0.52;;;9.10;99.90;;;;;;4991270;28;20039;-81
2023/11/04 08:30:09;;;;;;;0.40;0.40;;;9.10;99.90;;;;;;4990523;28;20077;-81
2023/11/04 08:32:41;;;;;;;0.40;0.40;;;9.00;99.90;;;;;;4989929;28;20051;-80
2023/11/04 08:35:06;;;;;;;0.55;0.55;;;9.00;99.90;;;;;;5013247;28;20043;-83
2023/11/04 08:37:33;;;;;;;0.30;0.30;;;8.90;99.90;;;;;;5000797;28;20037;-81
2023/11/04 08:39:59;;;;;;;0.40;0.40;;;8.90;99.90;;;;;;5015269;28;20125;-80
2023/11/04 08:42:25;;;;;;;0.50;0.50;;;9.00;99.90;;;;;;4990296;28;20556;-79
2023/11/04 08:44:51;;;;;;;0.40;0.40;;;9.00;99.90;;;;;;4988165;28;20103;-81
2023/11/04 08:47:17;;;;;;;0.95;0.95;;;9.00;99.90;;;;;;5003691;28;20390;-80
2023/11/04 08:49:43;;;;;;;0.85;0.85;;;9.10;99.90;;;;;;4974372;28;20051;-80
2023/11/04 08:52:09;;;;;;;0.30;0.30;;;9.10;99.90;;;;;;5020397;28;20053;-84
2023/11/04 08:54:35;;;;;;;0.50;0.50;;;9.20;99.90;;;;;;5028117;28;20134;-80
2023/11/04 08:57:00;;;;;;;0.65;0.65;;;9.40;99.90;;;;;;4994812;28;20134;-80
2023/11/04 08:59:26;;;;;;;0.50;0.50;;;9.40;99.90;;;;;;5019957;28;20067;-84
2023/11/04 09:01:52;;;;;;;0.50;0.50;;;9.50;99.90;;;;;;5034004;28;20047;-78
2023/11/04 09:04:18;;;;;;;0.30;0.30;;;9.60;99.90;;;;;;5024176;28;20089;-81
2023/11/04 09:06:43;;;;;;;0.40;0.40;;;9.80;99.90;;;;;;5018015;28;20138;-80
2023/11/04 09:09:09;;;;;;;0.60;0.60;;;9.80;99.90;;;;;;4974779;28;20074;-80
2023/11/04 09:11:39;;;;;;;0.30;0.30;;;9.90;99.90;;;;;;5004611;28;20454;-82
2023/11/04 09:14:05;;;;;;;0.30;0.30;;;9.90;99.90;;;;;;5008168;28;20082;-84
2023/11/04 09:16:33;;;;;;;0.40;0.40;;;9.80;99.90;;;;;;4972737;28;20074;-80
2023/11/04 09:18:59;;;;;;;0.68;0.68;;;9.90;99.90;;;;;;4996291;28;20043;-83
2023/11/04 09:21:25;;;;;;;0.50;0.50;;;9.90;99.90;;;;;;4965904;28;20042;-81
2023/11/04 09:23:51;;;;;;;0.32;0.32;;;10.00;99.90;;;;;;4998977;28;20393;-81
2023/11/04 09:26:17;;;;;;;;;;;9.90;99.90;;;;;;5001548;28;20487;-86
2023/11/04 09:28:43;;;;;;;0.40;0.40;;;9.90;99.90;;;;;;5028713;28;19927;-78
2023/11/04 09:31:09;;;;;;;1.40;1.30;;;9.80;99.90;;;;;;5007360;28;20427;-82
2023/11/04 09:33:35;;;;;;;;;;;9.90;99.90;;;;;;5024185;28;20047;-84
2023/11/04 09:36:02;;;;;;;0.32;0.32;;;9.90;99.90;;;;;;5009874;28;19923;-80
2023/11/04 09:38:28;;;;;;;0.40;0.40;;;9.90;99.90;;;;;;5057969;28;20484;-81
2023/11/04 09:40:54;;;;;;;3.13;2.90;;;9.90;99.90;;;;;;5057890;28;20049;-81
2023/11/04 09:43:22;;;;;;;0.40;0.35;;;10.00;99.90;;;;;;5059193;28;20585;-84
2023/11/04 09:45:48;;;;;;;0.43;0.43;;;10.00;99.90;;;;;;5020941;28;20053;-82
2023/11/04 09:48:15;;;;;;;0.30;0.30;;;10.10;99.90;;;;;;4984167;28;20502;-80
2023/11/04 09:50:41;;;;;;;0.32;0.32;;;10.10;99.90;;;;;;5018472;28;20032;-80
2023/11/04 09:53:21;;;;;;;0.40;0.40;;;10.00;99.90;;;;;;5038964;28;20433;-82
2023/11/04 09:55:48;;;;;;;0.50;0.50;;;10.00;99.90;;;;;;4961099;28;20050;-81
2023/11/04 09:58:14;;;;;;;1.13;1.02;;;10.00;99.90;;;;;;5058840;28;20059;-83
2023/11/04 10:00:43;;;;;;;1.08;1.08;;;10.00;99.90;;;;;;5054670;28;20074;-79
2023/11/04 10:03:08;;;;;;;0.32;0.32;;;9.90;99.90;;;;;;4992649;28;20106;-83
2023/11/04 10:05:34;;;;;;;0.30;0.30;;;10.30;99.90;;;;;;4981678;28;20038;-79
2023/11/04 10:08:00;;;;;;;0.75;0.75;;;10.10;99.90;;;;;;4989089;28;20120;-81
2023/11/04 10:10:26;;;;;;;0.57;0.57;;;10.20;99.90;;;;;;4996977;28;20032;-80
2023/11/04 10:12:54;;;;;;;0.50;0.50;;;10.50;99.90;;;;;;4967361;28;20050;-81
2023/11/04 10:15:22;;;;;;;0.30;0.30;;;10.60;99.90;;;;;;5010448;28;20474;-81
2023/11/04 10:17:48;;;;;;;1.98;0.68;;;10.60;99.90;;;;;;4986695;28;20114;-80
2023/11/04 10:20:15;;;;;;;0.40;0.40;;;10.60;99.90;;;;;;4979828;28;20536;-80
2023/11/04 10:22:41;;;;;;;0.30;0.30;;;10.60;99.90;;;;;;4983894;28;20490;-81
2023/11/04 10:25:07;;;;;;;0.63;0.63;;;10.50;99.90;;;;;;4963000;28;20066;-80
2023/11/04 10:27:37;;;;;;;0.40;0.40;;;10.50;99.90;;;;;;4981819;28;20036;-86
2023/11/04 10:30:03;;;;;;;0.40;0.40;;;10.90;99.90;;;;;;4979129;28;20049;-79
2023/11/04 10:32:34;;;;;;;0.38;0.38;;;10.60;99.90;;;;;;4982811;28;20069;-82
2023/11/04 10:35:03;;;;;;;0.28;0.28;;;10.60;99.90;;;;;;4974990;28;20047;-83
2023/11/04 10:37:32;;;;;;;0.45;0.45;;;10.60;99.90;;;;;;5004394;28;20051;-81
2023/11/04 10:40:05;;;;;;;0.30;0.30;;;10.70;99.90;;;;;;5020094;28;20102;-81
2023/11/04 10:42:32;;;;;;;0.40;0.40;;;10.70;99.90;;;;;;4984898;28;20399;-80
2023/11/04 10:45:05;;;;;;;0.30;0.30;;;10.70;99.90;;;;;;4979362;28;20073;-79
2023/11/04 10:47:40;;;;;;;0.30;0.30;;;10.70;99.90;;;;;;4984495;28;20035;-80
2023/11/04 10:50:05;;;;;;;0.30;0.30;;;10.60;99.90;;;;;;4996642;28;20046;-80
2023/11/04 10:52:44;;;;;;;0.30;0.30;;;10.60;99.90;;;;;;4966096;28;20105;-82
2023/11/04 10:55:12;;;;;;;0.30;0.30;;;10.50;99.90;;;;;;4994134;28;20036;-80
2023/11/04 10:58:07;;;;;;;0.50;0.50;;;10.50;99.90;;;;;;5003002;28;20046;-81
2023/11/04 11:00:35;;;;;;;0.30;0.30;;;10.50;99.90;;;;;;4971681;28;20042;-83
2023/11/04 11:03:02;;;;;;;0.40;0.40;;;10.50;99.90;;;;;;5027002;28;20052;-78
2023/11/04 11:05:29;;;;;;;0.30;0.30;;;10.40;99.90;;;;;;4963421;28;20544;-78
2023/11/04 11:07:57;;;;;;;0.30;0.30;;;10.40;99.90;;;;;;4963764;28;20081;-81
2023/11/04 11:10:53;;;;;;;0.30;0.30;;;10.30;99.90;;;;;;4981628;28;20079;-80
2023/11/04 11:13:23;;;;;;;0.77;0.40;;;10.40;99.90;;;;;;4992496;28;20059;-79
2023/11/04 11:15:49;;;;;;;0.40;0.40;;;10.50;99.90;;;;;;4979931;28;20050;-81
2023/11/04 11:18:26;;;;;;;;;;;10.50;99.90;;;;;;4986254;28;20038;-79
2023/11/04 11:20:51;;;;;;;0.35;0.35;;;10.60;99.90;;;;;;4972321;28;20371;-82
2023/11/04 11:23:28;;;;;;;0.30;0.30;;;10.60;99.90;;;;;;4981117;28;20130;-78
2023/11/04 11:26:04;;;;;;;0.30;0.30;;;10.60;99.90;;;;;;4991166;28;20055;-80
2023/11/04 11:28:40;;;;;;;0.40;0.40;;;10.60;99.90;;;;;;4982168;28;20034;-80
2023/11/04 11:31:11;;;;;;;0.40;0.40;;;10.70;99.90;;;;;;4981355;28;20342;-78
2023/11/04 11:33:44;;;;;;;0.32;0.32;;;10.70;99.90;;;;;;4978522;28;20042;-80
2023/11/04 11:36:11;;;;;;;0.40;0.40;;;10.80;99.90;;;;;;4988556;28;20095;-82
2023/11/04 11:38:43;;;;;;;0.50;0.50;;;10.90;99.90;;;;;;4981015;28;20469;-80
2023/11/04 11:41:14;;;;;;;1.75;1.65;;;11.00;99.90;;;;;;4985462;28;20554;-81
2023/11/04 11:43:42;;;;;;;0.30;0.30;;;11.00;99.90;;;;;;4964503;28;20095;-79
2023/11/04 11:46:08;;;;;;;0.40;0.40;;;11.00;99.90;;;;;;4980553;28;20470;-78
2023/11/04 11:48:38;;;;;;;0.40;0.40;;;11.00;99.90;;;;;;4983221;28;20046;-83
2023/11/04 11:51:11;;;;;;;0.30;0.30;;;11.00;99.90;;;;;;4964253;28;20043;-81
2023/11/04 11:53:46;;;;;;;0.30;0.30;;;10.90;99.90;;;;;;4992986;28;20058;-82
2023/11/04 11:56:12;;;;;;;0.43;0.43;;;10.80;99.90;;;;;;4976437;28;20062;-77
2023/11/04 11:58:40;;;;;;;0.35;0.35;;;10.80;99.90;;;;;;4967669;28;20048;-80
2023/11/04 12:01:08;;;;;;;0.20;0.20;;;10.80;99.90;;;;;;5025432;28;20036;-82
2023/11/04 12:03:35;;;;;;;0.30;0.30;;;10.80;99.90;;;;;;5020368;28;20379;-82
2023/11/04 12:06:02;;;;;;;0.30;0.30;;;10.90;99.90;;;;;;5000926;28;20066;-81
2023/11/04 12:08:29;;;;;;;0.40;0.40;;;10.90;99.90;;;;;;5019315;28;20066;-77
2023/11/04 12:10:55;;;;;;;0.30;0.30;;;10.90;99.90;;;;;;4999084;28;20516;-78
2023/11/04 12:13:21;;;;;;;0.40;0.40;;;10.90;99.90;;;;;;4984761;28;20074;-77
2023/11/04 12:15:47;;;;;;;0.32;0.32;;;11.00;99.90;;;;;;4987097;28;20484;-79
2023/11/04 12:18:13;;;;;;;0.30;0.30;;;11.20;99.90;;;;;;4967050;28;20334;-80
2023/11/04 12:20:42;;;;;;;0.45;0.45;;;11.20;99.90;;;;;;4998166;28;20140;-80
2023/11/04 12:23:10;;;;;;;0.30;0.30;;;11.30;99.90;;;;;;4977504;28;20058;-81
2023/11/04 12:25:37;;;;;;;0.50;0.50;;;11.40;99.90;;;;;;4942235;28;20386;-78
2023/11/04 12:28:05;;;;;;;0.30;0.30;;;11.40;99.90;;;;;;4972921;28;20080;-81
2023/11/04 12:30:31;;;;;;;0.30;0.30;;;11.40;99.90;;;;;;4978065;28;20037;-83
2023/11/04 12:32:59;;;;;;;0.50;0.50;;;11.40;99.90;;;;;;4986725;28;20131;-80
2023/11/04 12:35:25;;;;;;;0.47;0.47;;;11.30;99.90;;;;;;4990691;28;20485;-76
2023/11/04 12:37:52;;;;;;;0.40;0.40;;;11.30;99.90;;;;;;5037098;28;20046;-80
2023/11/04 12:40:19;;;;;;;0.30;0.30;;;11.30;99.90;;;;;;4960031;28;20042;-85
2023/11/04 12:42:46;;;;;;;0.32;0.32;;;11.20;99.90;;;;;;4978802;28;20048;-81
2023/11/04 12:45:13;;;;;;;0.30;0.30;;;11.10;99.90;;;;;;4979390;28;20064;-81
2023/11/04 12:47:39;;;;;;;0.30;0.30;;;11.10;99.90;;;;;;4982598;28;20153;-80
2023/11/04 12:50:13;;;;;;;0.43;0.43;;;11.10;99.90;;;;;;4970567;28;20035;-79
2023/11/04 12:52:42;;;;;;;0.52;0.52;;;11.10;99.90;;;;;;5005931;28;20052;-79